sensor_id;sensor_type;location;lat;lon;timestamp;temperature;humidity
24382;DHT22;12502;50.678;7.172;2022-12-19T00:00:31;-0.50;99.90
24382;DHT22;12502;50.678;7.172;2022-12-19T00:05:36;-0.40;99.90
24382;DHT22;12502;50.678;7.172;2022-12-19T00:10:38;-0.40;99.90
24382;DHT22;12502;50.678;7.172;2022-12-19T00:15:40;-0.30;99.90
24382;DHT22;12502;50.678;7.172;2022-12-19T00:20:41;-0.30;99.90
24382;DHT22;12502;50.678;7.172;2022-12-19T00:25:43;-0.20;99.90
24382;DHT22;12502;50.678;7.172;2022-12-19T00:30:46;-0.20;99.90
24382;DHT22;12502;50.678;7.172;2022-12-19T00:35:47;-0.10;99.90
24382;DHT22;12502;50.678;7.172;2022-12-19T00:40:49;-0.10;99.90
24382;DHT22;12502;50.678;7.172;2022-12-19T00:45:51;-0.20;99.90
24382;DHT22;12502;50.678;7.172;2022-12-19T00:50:59;-0.20;99.90
24382;DHT22;12502;50.678;7.172;2022-12-19T00:56:03;-0.20;99.90
24382;DHT22;12502;50.678;7.172;2022-12-19T01:01:06;-0.20;99.90
24382;DHT22;12502;50.678;7.172;2022-12-19T01:06:08;-0.20;99.90
24382;DHT22;12502;50.678;7.172;2022-12-19T01:11:11;-0.30;99.90
24382;DHT22;12502;50.678;7.172;2022-12-19T01:16:13;-0.20;99.90
24382;DHT22;12502;50.678;7.172;2022-12-19T01:21:15;-0.20;99.90
24382;DHT22;12502;50.678;7.172;2022-12-19T01:26:16;-0.20;99.90
24382;DHT22;12502;50.678;7.172;2022-12-19T01:31:18;-0.10;99.90
24382;DHT22;12502;50.678;7.172;2022-12-19T01:36:20;-0.10;99.90
24382;DHT22;12502;50.678;7.172;2022-12-19T01:41:21;-0.10;99.90
24382;DHT22;12502;50.678;7.172;2022-12-19T01:46:41;-0.10;99.90
24382;DHT22;12502;50.678;7.172;2022-12-19T01:51:46;0.00;99.90
24382;DHT22;12502;50.678;7.172;2022-12-19T01:56:54;0.00;99.90
24382;DHT22;12502;50.678;7.172;2022-12-19T02:02:03;0.10;99.90
24382;DHT22;12502;50.678;7.172;2022-12-19T02:07:08;0.10;99.90
24382;DHT22;12502;50.678;7.172;2022-12-19T02:12:16;0.20;99.90
24382;DHT22;12502;50.678;7.172;2022-12-19T02:17:37;0.10;99.90
24382;DHT22;12502;50.678;7.172;2022-12-19T02:33:41;0.20;99.90
24382;DHT22;12502;50.678;7.172;2022-12-19T02:38:52;0.20;99.90
24382;DHT22;12502;50.678;7.172;2022-12-19T02:43:57;0.20;99.90
24382;DHT22;12502;50.678;7.172;2022-12-19T02:49:00;0.30;99.90
24382;DHT22;12502;50.678;7.172;2022-12-19T02:54:02;0.30;99.90
24382;DHT22;12502;50.678;7.172;2022-12-19T02:59:27;0.30;99.90
24382;DHT22;12502;50.678;7.172;2022-12-19T03:05:11;0.40;99.90
24382;DHT22;12502;50.678;7.172;2022-12-19T03:10:47;0.40;99.90
24382;DHT22;12502;50.678;7.172;2022-12-19T03:15:46;0.50;99.90
24382;DHT22;12502;50.678;7.172;2022-12-19T03:20:58;0.50;99.90
24382;DHT22;12502;50.678;7.172;2022-12-19T03:26:10;0.60;99.90
24382;DHT22;12502;50.678;7.172;2022-12-19T03:31:14;0.60;99.90
24382;DHT22;12502;50.678;7.172;2022-12-19T03:36:20;0.70;99.90
24382;DHT22;12502;50.678;7.172;2022-12-19T03:41:25;0.70;99.90
24382;DHT22;12502;50.678;7.172;2022-12-19T03:46:57;0.70;99.90
24382;DHT22;12502;50.678;7.172;2022-12-19T03:52:28;0.70;99.90
24382;DHT22;12502;50.678;7.172;2022-12-19T03:57:44;0.80;99.90
24382;DHT22;12502;50.678;7.172;2022-12-19T04:02:48;0.80;99.90
24382;DHT22;12502;50.678;7.172;2022-12-19T04:07:59;0.90;99.90
24382;DHT22;12502;50.678;7.172;2022-12-19T04:13:09;0.90;99.90
24382;DHT22;12502;50.678;7.172;2022-12-19T04:18:13;0.90;99.90
24382;DHT22;12502;50.678;7.172;2022-12-19T04:23:22;0.90;99.90
24382;DHT22;12502;50.678;7.172;2022-12-19T04:28:44;0.90;99.90
24382;DHT22;12502;50.678;7.172;2022-12-19T04:33:46;1.00;99.90
24382;DHT22;12502;50.678;7.172;2022-12-19T04:38:48;1.00;99.90
24382;DHT22;12502;50.678;7.172;2022-12-19T04:43:49;1.00;99.90
24382;DHT22;12502;50.678;7.172;2022-12-19T04:48:51;1.00;99.90
24382;DHT22;12502;50.678;7.172;2022-12-19T04:53:53;1.00;99.90
24382;DHT22;12502;50.678;7.172;2022-12-19T04:58:56;1.00;99.90
24382;DHT22;12502;50.678;7.172;2022-12-19T05:03:59;1.10;99.90
24382;DHT22;12502;50.678;7.172;2022-12-19T05:09:05;1.10;99.90
24382;DHT22;12502;50.678;7.172;2022-12-19T05:14:07;1.10;99.90
24382;DHT22;12502;50.678;7.172;2022-12-19T05:19:09;1.20;99.90
24382;DHT22;12502;50.678;7.172;2022-12-19T05:24:11;1.20;99.90
24382;DHT22;12502;50.678;7.172;2022-12-19T05:29:13;1.20;99.90
24382;DHT22;12502;50.678;7.172;2022-12-19T05:34:14;1.30;99.90
24382;DHT22;12502;50.678;7.172;2022-12-19T05:39:16;1.30;99.90
24382;DHT22;12502;50.678;7.172;2022-12-19T05:44:18;1.40;99.90
24382;DHT22;12502;50.678;7.172;2022-12-19T05:49:19;1.40;99.90
24382;DHT22;12502;50.678;7.172;2022-12-19T05:54:21;1.50;99.90
24382;DHT22;12502;50.678;7.172;2022-12-19T05:59:23;1.50;99.90
24382;DHT22;12502;50.678;7.172;2022-12-19T06:04:25;1.50;99.90
24382;DHT22;12502;50.678;7.172;2022-12-19T06:09:27;1.60;99.90
24382;DHT22;12502;50.678;7.172;2022-12-19T06:14:29;1.70;99.90
24382;DHT22;12502;50.678;7.172;2022-12-19T06:19:31;1.80;99.90
24382;DHT22;12502;50.678;7.172;2022-12-19T06:24:32;1.80;99.90
24382;DHT22;12502;50.678;7.172;2022-12-19T06:29:34;1.90;99.90
24382;DHT22;12502;50.678;7.172;2022-12-19T06:34:36;1.90;99.90
24382;DHT22;12502;50.678;7.172;2022-12-19T06:39:58;1.90;99.90
24382;DHT22;12502;50.678;7.172;2022-12-19T06:44:59;1.90;99.90
24382;DHT22;12502;50.678;7.172;2022-12-19T06:50:02;2.00;99.90
24382;DHT22;12502;50.678;7.172;2022-12-19T06:55:06;2.00;99.90
24382;DHT22;12502;50.678;7.172;2022-12-19T07:00:15;2.00;99.90
24382;DHT22;12502;50.678;7.172;2022-12-19T07:05:17;2.00;99.90
24382;DHT22;12502;50.678;7.172;2022-12-19T07:10:19;2.00;99.90
24382;DHT22;12502;50.678;7.172;2022-12-19T07:15:22;2.10;99.90
24382;DHT22;12502;50.678;7.172;2022-12-19T07:20:42;2.10;99.90
24382;DHT22;12502;50.678;7.172;2022-12-19T07:25:47;2.10;99.90
24382;DHT22;12502;50.678;7.172;2022-12-19T07:30:51;2.10;99.90
24382;DHT22;12502;50.678;7.172;2022-12-19T07:35:52;2.20;99.90
24382;DHT22;12502;50.678;7.172;2022-12-19T07:40:54;2.30;99.90
24382;DHT22;12502;50.678;7.172;2022-12-19T07:45:57;2.30;99.90
24382;DHT22;12502;50.678;7.172;2022-12-19T07:51:02;2.40;99.90
24382;DHT22;12502;50.678;7.172;2022-12-19T07:56:05;2.40;99.90
24382;DHT22;12502;50.678;7.172;2022-12-19T08:01:08;2.40;99.90
24382;DHT22;12502;50.678;7.172;2022-12-19T08:06:10;2.40;99.90
24382;DHT22;12502;50.678;7.172;2022-12-19T08:11:17;2.40;99.90
24382;DHT22;12502;50.678;7.172;2022-12-19T08:16:19;2.40;99.90
24382;DHT22;12502;50.678;7.172;2022-12-19T08:21:22;2.40;99.90
24382;DHT22;12502;50.678;7.172;2022-12-19T08:26:25;2.40;99.90
24382;DHT22;12502;50.678;7.172;2022-12-19T08:31:30;2.40;99.90
24382;DHT22;12502;50.678;7.172;2022-12-19T08:36:32;2.40;99.90
24382;DHT22;12502;50.678;7.172;2022-12-19T08:41:34;2.40;99.90
24382;DHT22;12502;50.678;7.172;2022-12-19T08:46:37;2.50;99.90
24382;DHT22;12502;50.678;7.172;2022-12-19T08:51:39;2.50;99.90
24382;DHT22;12502;50.678;7.172;2022-12-19T08:56:41;2.50;99.90
24382;DHT22;12502;50.678;7.172;2022-12-19T09:01:48;2.70;99.90
24382;DHT22;12502;50.678;7.172;2022-12-19T09:06:50;2.80;99.90
24382;DHT22;12502;50.678;7.172;2022-12-19T09:11:52;2.80;99.90
24382;DHT22;12502;50.678;7.172;2022-12-19T09:16:54;2.90;99.90
24382;DHT22;12502;50.678;7.172;2022-12-19T09:21:59;2.90;99.90
24382;DHT22;12502;50.678;7.172;2022-12-19T09:27:01;2.90;99.90
24382;DHT22;12502;50.678;7.172;2022-12-19T09:32:04;3.00;99.90
24382;DHT22;12502;50.678;7.172;2022-12-19T09:37:07;3.00;99.90
24382;DHT22;12502;50.678;7.172;2022-12-19T09:47:19;3.10;99.90
24382;DHT22;12502;50.678;7.172;2022-12-19T09:52:41;3.10;99.90
24382;DHT22;12502;50.678;7.172;2022-12-19T10:08:20;3.20;99.90
24382;DHT22;12502;50.678;7.172;2022-12-19T10:19:08;3.20;99.90
24382;DHT22;12502;50.678;7.172;2022-12-19T10:30:18;3.30;99.90
24382;DHT22;12502;50.678;7.172;2022-12-19T10:35:21;3.40;99.90
24382;DHT22;12502;50.678;7.172;2022-12-19T10:40:31;3.50;99.90
24382;DHT22;12502;50.678;7.172;2022-12-19T10:45:44;3.60;99.90
24382;DHT22;12502;50.678;7.172;2022-12-19T10:50:48;3.70;99.90
24382;DHT22;12502;50.678;7.172;2022-12-19T10:55:54;3.70;99.90
24382;DHT22;12502;50.678;7.172;2022-12-19T11:11:42;3.90;99.90
24382;DHT22;12502;50.678;7.172;2022-12-19T11:17:03;4.00;99.90
24382;DHT22;12502;50.678;7.172;2022-12-19T11:22:30;4.00;99.90
24382;DHT22;12502;50.678;7.172;2022-12-19T11:27:52;4.00;99.90
24382;DHT22;12502;50.678;7.172;2022-12-19T11:33:15;4.00;99.90
24382;DHT22;12502;50.678;7.172;2022-12-19T11:43:55;4.00;99.90
24382;DHT22;12502;50.678;7.172;2022-12-19T11:54:22;3.90;99.90
24382;DHT22;12502;50.678;7.172;2022-12-19T12:05:16;4.00;99.90
24382;DHT22;12502;50.678;7.172;2022-12-19T12:10:22;4.10;99.90
24382;DHT22;12502;50.678;7.172;2022-12-19T12:16:10;4.20;99.90
24382;DHT22;12502;50.678;7.172;2022-12-19T12:27:29;4.20;99.90
24382;DHT22;12502;50.678;7.172;2022-12-19T12:38:57;4.30;99.90
24382;DHT22;12502;50.678;7.172;2022-12-19T12:44:08;4.40;99.90
24382;DHT22;12502;50.678;7.172;2022-12-19T12:54:40;4.50;99.90
24382;DHT22;12502;50.678;7.172;2022-12-19T12:59:45;4.60;99.90
24382;DHT22;12502;50.678;7.172;2022-12-19T13:04:59;4.70;99.90
24382;DHT22;12502;50.678;7.172;2022-12-19T13:10:43;4.70;99.90
24382;DHT22;12502;50.678;7.172;2022-12-19T13:30:34;5.00;99.90
24382;DHT22;12502;50.678;7.172;2022-12-19T13:35:55;5.10;99.90
24382;DHT22;12502;50.678;7.172;2022-12-19T13:41:29;5.10;99.90
24382;DHT22;12502;50.678;7.172;2022-12-19T13:46:51;5.10;99.90
24382;DHT22;12502;50.678;7.172;2022-12-19T13:51:56;5.00;99.90
24382;DHT22;12502;50.678;7.172;2022-12-19T13:56:59;5.00;99.90
24382;DHT22;12502;50.678;7.172;2022-12-19T14:02:31;5.00;99.90
24382;DHT22;12502;50.678;7.172;2022-12-19T14:07:46;4.90;99.90
24382;DHT22;12502;50.678;7.172;2022-12-19T14:12:49;4.90;99.90
24382;DHT22;12502;50.678;7.172;2022-12-19T14:18:31;5.00;99.90
24382;DHT22;12502;50.678;7.172;2022-12-19T14:23:46;5.10;99.90
24382;DHT22;12502;50.678;7.172;2022-12-19T14:29:00;5.10;99.90
24382;DHT22;12502;50.678;7.172;2022-12-19T14:34:05;5.20;99.90
24382;DHT22;12502;50.678;7.172;2022-12-19T14:39:31;5.20;99.90
24382;DHT22;12502;50.678;7.172;2022-12-19T14:44:54;5.30;99.90
24382;DHT22;12502;50.678;7.172;2022-12-19T14:50:45;5.30;99.90
24382;DHT22;12502;50.678;7.172;2022-12-19T14:56:15;5.30;99.90
24382;DHT22;12502;50.678;7.172;2022-12-19T15:01:38;5.30;99.90
24382;DHT22;12502;50.678;7.172;2022-12-19T15:06:42;5.20;99.90
24382;DHT22;12502;50.678;7.172;2022-12-19T15:12:12;5.30;99.90
24382;DHT22;12502;50.678;7.172;2022-12-19T15:17:54;5.30;99.90
24382;DHT22;12502;50.678;7.172;2022-12-19T15:22:55;5.40;99.90
24382;DHT22;12502;50.678;7.172;2022-12-19T15:27:57;5.30;99.90
24382;DHT22;12502;50.678;7.172;2022-12-19T15:32:59;5.50;99.90
24382;DHT22;12502;50.678;7.172;2022-12-19T15:38:00;5.50;99.90
24382;DHT22;12502;50.678;7.172;2022-12-19T15:43:03;5.60;99.90
24382;DHT22;12502;50.678;7.172;2022-12-19T15:48:05;5.60;99.90
24382;DHT22;12502;50.678;7.172;2022-12-19T15:53:27;5.60;99.90
24382;DHT22;12502;50.678;7.172;2022-12-19T15:58:41;5.50;99.90
24382;DHT22;12502;50.678;7.172;2022-12-19T16:03:43;5.50;99.90
24382;DHT22;12502;50.678;7.172;2022-12-19T16:08:45;5.50;99.90
24382;DHT22;12502;50.678;7.172;2022-12-19T16:14:05;5.60;99.90
24382;DHT22;12502;50.678;7.172;2022-12-19T16:19:22;5.60;99.90
24382;DHT22;12502;50.678;7.172;2022-12-19T16:24:24;5.60;99.90
24382;DHT22;12502;50.678;7.172;2022-12-19T16:29:28;5.60;99.90
24382;DHT22;12502;50.678;7.172;2022-12-19T16:34:31;5.70;99.90
24382;DHT22;12502;50.678;7.172;2022-12-19T16:39:33;5.70;99.90
24382;DHT22;12502;50.678;7.172;2022-12-19T16:44:35;5.80;99.90
24382;DHT22;12502;50.678;7.172;2022-12-19T16:49:37;5.80;99.90
24382;DHT22;12502;50.678;7.172;2022-12-19T16:54:38;5.90;99.90
24382;DHT22;12502;50.678;7.172;2022-12-19T16:59:41;6.00;99.90
24382;DHT22;12502;50.678;7.172;2022-12-19T17:04:42;6.10;99.90
24382;DHT22;12502;50.678;7.172;2022-12-19T17:09:52;6.20;99.90
24382;DHT22;12502;50.678;7.172;2022-12-19T17:14:54;6.30;99.90
24382;DHT22;12502;50.678;7.172;2022-12-19T17:19:56;6.30;99.90
24382;DHT22;12502;50.678;7.172;2022-12-19T17:24:58;6.40;99.90
24382;DHT22;12502;50.678;7.172;2022-12-19T17:30:00;6.50;99.90
24382;DHT22;12502;50.678;7.172;2022-12-19T17:35:01;6.50;99.90
24382;DHT22;12502;50.678;7.172;2022-12-19T17:40:14;6.60;99.90
24382;DHT22;12502;50.678;7.172;2022-12-19T17:45:17;6.70;99.90
24382;DHT22;12502;50.678;7.172;2022-12-19T17:50:26;6.70;99.90
24382;DHT22;12502;50.678;7.172;2022-12-19T17:55:29;6.60;99.90
24382;DHT22;12502;50.678;7.172;2022-12-19T18:00:32;6.50;99.90
24382;DHT22;12502;50.678;7.172;2022-12-19T18:05:35;6.50;99.90
24382;DHT22;12502;50.678;7.172;2022-12-19T18:10:37;6.50;99.90
24382;DHT22;12502;50.678;7.172;2022-12-19T18:15:39;6.40;99.90
24382;DHT22;12502;50.678;7.172;2022-12-19T18:20:43;6.50;99.90
24382;DHT22;12502;50.678;7.172;2022-12-19T18:25:45;6.50;99.90
24382;DHT22;12502;50.678;7.172;2022-12-19T18:30:48;6.50;99.90
24382;DHT22;12502;50.678;7.172;2022-12-19T18:35:50;6.50;99.90
24382;DHT22;12502;50.678;7.172;2022-12-19T18:40:52;6.60;99.90
24382;DHT22;12502;50.678;7.172;2022-12-19T18:45:54;6.60;99.90
24382;DHT22;12502;50.678;7.172;2022-12-19T18:50:57;6.70;99.90
24382;DHT22;12502;50.678;7.172;2022-12-19T18:56:00;6.70;99.90
24382;DHT22;12502;50.678;7.172;2022-12-19T19:01:04;6.70;99.90
24382;DHT22;12502;50.678;7.172;2022-12-19T19:06:27;6.80;99.90
24382;DHT22;12502;50.678;7.172;2022-12-19T19:11:36;6.80;99.90
24382;DHT22;12502;50.678;7.172;2022-12-19T19:16:38;6.80;99.90
24382;DHT22;12502;50.678;7.172;2022-12-19T19:21:40;6.90;99.90
24382;DHT22;12502;50.678;7.172;2022-12-19T19:26:43;6.90;99.90
24382;DHT22;12502;50.678;7.172;2022-12-19T19:31:46;7.00;99.90
24382;DHT22;12502;50.678;7.172;2022-12-19T19:36:50;7.00;99.90
24382;DHT22;12502;50.678;7.172;2022-12-19T19:41:55;7.00;99.90
24382;DHT22;12502;50.678;7.172;2022-12-19T19:46:57;7.00;99.90
24382;DHT22;12502;50.678;7.172;2022-12-19T19:52:00;7.00;99.90
24382;DHT22;12502;50.678;7.172;2022-12-19T19:57:03;7.00;99.90
24382;DHT22;12502;50.678;7.172;2022-12-19T20:02:06;7.00;99.90
24382;DHT22;12502;50.678;7.172;2022-12-19T20:07:09;7.00;99.90
24382;DHT22;12502;50.678;7.172;2022-12-19T20:12:10;7.00;99.90
24382;DHT22;12502;50.678;7.172;2022-12-19T20:17:14;7.20;99.90
24382;DHT22;12502;50.678;7.172;2022-12-19T20:22:16;7.30;99.90
24382;DHT22;12502;50.678;7.172;2022-12-19T20:27:18;7.30;99.90
24382;DHT22;12502;50.678;7.172;2022-12-19T20:32:30;7.20;99.90
24382;DHT22;12502;50.678;7.172;2022-12-19T20:37:32;7.20;99.90
24382;DHT22;12502;50.678;7.172;2022-12-19T20:42:34;7.10;99.90
24382;DHT22;12502;50.678;7.172;2022-12-19T20:47:42;7.00;99.90
24382;DHT22;12502;50.678;7.172;2022-12-19T20:52:48;6.90;99.90
24382;DHT22;12502;50.678;7.172;2022-12-19T20:57:50;7.00;99.90
24382;DHT22;12502;50.678;7.172;2022-12-19T21:02:52;6.80;99.90
24382;DHT22;12502;50.678;7.172;2022-12-19T21:08:15;6.90;99.90
24382;DHT22;12502;50.678;7.172;2022-12-19T21:13:18;6.80;99.90
24382;DHT22;12502;50.678;7.172;2022-12-19T21:18:20;6.90;99.90
24382;DHT22;12502;50.678;7.172;2022-12-19T21:23:23;7.10;99.90
24382;DHT22;12502;50.678;7.172;2022-12-19T21:28:26;7.20;99.90
24382;DHT22;12502;50.678;7.172;2022-12-19T21:33:28;7.20;99.90
24382;DHT22;12502;50.678;7.172;2022-12-19T21:38:30;7.30;99.90
24382;DHT22;12502;50.678;7.172;2022-12-19T21:43:33;7.30;99.90
24382;DHT22;12502;50.678;7.172;2022-12-19T21:48:40;7.30;99.90
24382;DHT22;12502;50.678;7.172;2022-12-19T21:53:42;7.40;99.90
24382;DHT22;12502;50.678;7.172;2022-12-19T21:58:44;7.40;99.90
24382;DHT22;12502;50.678;7.172;2022-12-19T22:03:46;7.50;99.90
24382;DHT22;12502;50.678;7.172;2022-12-19T22:08:48;7.50;99.90
24382;DHT22;12502;50.678;7.172;2022-12-19T22:13:50;7.60;99.90
24382;DHT22;12502;50.678;7.172;2022-12-19T22:18:52;7.70;99.90
24382;DHT22;12502;50.678;7.172;2022-12-19T22:23:57;7.80;99.90
24382;DHT22;12502;50.678;7.172;2022-12-19T22:28:59;7.80;99.90
24382;DHT22;12502;50.678;7.172;2022-12-19T22:34:03;8.00;99.90
24382;DHT22;12502;50.678;7.172;2022-12-19T22:39:08;8.10;99.90
24382;DHT22;12502;50.678;7.172;2022-12-19T22:44:24;8.10;99.90
24382;DHT22;12502;50.678;7.172;2022-12-19T22:49:25;8.00;99.90
24382;DHT22;12502;50.678;7.172;2022-12-19T22:54:27;8.00;99.90
24382;DHT22;12502;50.678;7.172;2022-12-19T22:59:29;8.00;99.90
24382;DHT22;12502;50.678;7.172;2022-12-19T23:04:31;8.10;99.90
24382;DHT22;12502;50.678;7.172;2022-12-19T23:09:33;8.10;99.90
24382;DHT22;12502;50.678;7.172;2022-12-19T23:14:34;8.20;99.90
24382;DHT22;12502;50.678;7.172;2022-12-19T23:19:36;8.40;99.90
24382;DHT22;12502;50.678;7.172;2022-12-19T23:24:38;8.70;99.90
24382;DHT22;12502;50.678;7.172;2022-12-19T23:29:40;8.80;99.90
24382;DHT22;12502;50.678;7.172;2022-12-19T23:34:42;8.90;99.90
24382;DHT22;12502;50.678;7.172;2022-12-19T23:39:44;9.00;99.90
24382;DHT22;12502;50.678;7.172;2022-12-19T23:44:46;9.10;99.90
24382;DHT22;12502;50.678;7.172;2022-12-19T23:49:47;9.00;99.90
24382;DHT22;12502;50.678;7.172;2022-12-19T23:54:49;9.10;99.90
24382;DHT22;12502;50.678;7.172;2022-12-19T23:59:51;9.00;99.90
